createdAt,value
2023-03-25T00:02:23.431Z,9.19
2023-03-25T00:04:52.684Z,9.24
2023-03-25T00:07:21.270Z,9.25
2023-03-25T00:09:50.876Z,9.21
2023-03-25T00:12:19.836Z,9.24
2023-03-25T00:14:54.582Z,9.26
2023-03-25T00:17:23.181Z,9.27
2023-03-25T00:19:52.191Z,9.25
2023-03-25T00:22:20.400Z,9.26
2023-03-25T00:24:48.185Z,9.25
2023-03-25T00:27:18.485Z,9.26
2023-03-25T00:29:47.131Z,9.15
2023-03-25T00:32:16.569Z,9.15
2023-03-25T00:34:47.562Z,9.13
2023-03-25T00:37:17.744Z,9.12
2023-03-25T00:39:46.264Z,9.14
2023-03-25T00:42:17.913Z,9.14
2023-03-25T00:44:46.057Z,9.18
2023-03-25T00:47:18.344Z,9.16
2023-03-25T00:49:46.465Z,9.17
2023-03-25T00:52:14.340Z,9.17
2023-03-25T00:54:42.131Z,9.19
2023-03-25T00:57:09.920Z,9.16
2023-03-25T00:59:39.058Z,9.16
2023-03-25T01:02:06.922Z,9.19
2023-03-25T01:04:35.366Z,9.18
2023-03-25T01:07:03.549Z,9.15
2023-03-25T01:09:32.182Z,9.18
2023-03-25T01:11:59.988Z,9.17
2023-03-25T01:14:29.117Z,9.14
2023-03-25T01:16:59.680Z,9.15
2023-03-25T01:19:27.708Z,9.15
2023-03-25T01:21:55.426Z,9.17
2023-03-25T01:24:23.183Z,9.15
2023-03-25T01:26:51.010Z,9.11
2023-03-25T01:29:20.790Z,9.07
2023-03-25T01:31:49.426Z,9.03
2023-03-25T01:34:18.571Z,9.01
2023-03-25T01:36:47.351Z,9.03
2023-03-25T01:39:18.670Z,9.01
2023-03-25T01:41:50.592Z,8.99
2023-03-25T01:44:57.305Z,8.96
2023-03-25T01:47:26.706Z,8.92
2023-03-25T01:49:55.930Z,8.89
2023-03-25T01:52:29.704Z,8.83
2023-03-25T01:54:59.871Z,8.82
2023-03-25T01:57:28.318Z,8.77
2023-03-25T01:59:56.966Z,8.77
2023-03-25T02:02:36.584Z,8.76
2023-03-25T02:05:10.888Z,8.74
2023-03-25T02:07:43.046Z,8.77
2023-03-25T02:10:12.552Z,8.75
2023-03-25T02:12:41.022Z,8.76
2023-03-25T02:15:11.246Z,8.74
2023-03-25T02:17:51.391Z,8.75
2023-03-25T02:20:46.967Z,8.74
2023-03-25T02:23:42.307Z,8.74
2023-03-25T02:26:56.624Z,8.72
2023-03-25T02:29:43.123Z,8.70
2023-03-25T02:32:27.356Z,8.68
2023-03-25T02:35:09.803Z,8.75
2023-03-25T02:38:06.492Z,8.75
2023-03-25T02:40:39.501Z,8.69
2023-03-25T02:43:14.188Z,8.65
2023-03-25T02:45:48.075Z,8.67
2023-03-25T02:48:21.576Z,8.70
2023-03-25T02:50:52.808Z,8.72
2023-03-25T02:53:27.554Z,8.69
2023-03-25T02:55:59.680Z,8.67
2023-03-25T02:58:29.939Z,8.61
2023-03-25T03:00:58.977Z,8.63
2023-03-25T03:03:28.379Z,8.64
2023-03-25T03:06:00.295Z,8.70
2023-03-25T03:08:42.606Z,8.70
2023-03-25T03:11:15.664Z,8.67
2023-03-25T03:13:58.848Z,8.64
2023-03-25T03:16:34.842Z,8.64
2023-03-25T03:19:14.370Z,8.59
2023-03-25T03:21:51.535Z,8.64
2023-03-25T03:24:28.750Z,8.63
2023-03-25T03:27:01.549Z,8.63
2023-03-25T03:29:34.817Z,8.64
2023-03-25T03:32:09.480Z,8.62
2023-03-25T03:34:45.044Z,8.61
2023-03-25T03:37:17.117Z,8.57
2023-03-25T03:39:48.826Z,8.57
2023-03-25T03:42:21.330Z,8.58
2023-03-25T03:44:53.245Z,8.56
2023-03-25T03:47:24.825Z,8.57
2023-03-25T03:49:56.845Z,8.58
2023-03-25T03:52:29.585Z,8.57
2023-03-25T03:55:03.201Z,8.54
2023-03-25T03:57:34.445Z,8.51
2023-03-25T04:00:06.914Z,8.49
2023-03-25T04:02:40.210Z,8.47
2023-03-25T04:05:11.491Z,8.43
2023-03-25T04:07:42.652Z,8.40
2023-03-25T04:10:16.248Z,8.40
2023-03-25T04:12:47.334Z,8.39
2023-03-25T04:15:16.349Z,8.39
2023-03-25T04:17:44.165Z,8.44
2023-03-25T04:20:15.450Z,8.39
2023-03-25T04:22:46.087Z,8.38
2023-03-25T04:25:15.312Z,8.34
2023-03-25T04:27:48.904Z,8.33
2023-03-25T04:30:19.242Z,8.32
2023-03-25T04:32:48.032Z,8.36
2023-03-25T04:35:17.130Z,8.27
2023-03-25T04:37:46.242Z,8.31
2023-03-25T04:40:18.750Z,8.37
2023-03-25T04:42:47.098Z,8.31
2023-03-25T04:45:17.093Z,8.33
2023-03-25T04:47:47.149Z,8.37
2023-03-25T04:50:22.172Z,8.36
2023-03-25T04:52:51.293Z,8.34
2023-03-25T04:55:21.268Z,8.37
2023-03-25T04:57:50.825Z,8.34
2023-03-25T05:00:22.263Z,8.32
2023-03-25T05:02:52.244Z,8.30
2023-03-25T05:05:22.185Z,8.28
2023-03-25T05:07:51.665Z,8.29
2023-03-25T05:10:23.138Z,8.29
2023-03-25T05:12:51.065Z,8.29
2023-03-25T05:15:19.062Z,8.34
2023-03-25T05:17:46.907Z,8.37
2023-03-25T05:20:16.401Z,8.33
2023-03-25T05:22:45.682Z,8.30
2023-03-25T05:25:13.472Z,8.27
2023-03-25T05:27:42.716Z,8.28
2023-03-25T05:30:11.544Z,8.29
2023-03-25T05:32:41.282Z,8.29
2023-03-25T05:35:10.454Z,8.26
2023-03-25T05:37:38.944Z,8.30
2023-03-25T05:40:14.594Z,8.31
2023-03-25T05:42:48.982Z,8.33
2023-03-25T05:45:17.066Z,8.34
2023-03-25T05:47:45.084Z,8.38
2023-03-25T05:50:14.457Z,8.34
2023-03-25T05:52:42.615Z,8.29
2023-03-25T05:55:13.371Z,8.27
2023-03-25T05:57:41.110Z,8.28
2023-03-25T06:00:12.914Z,8.23
2023-03-25T06:02:43.229Z,8.25
2023-03-25T06:05:13.908Z,8.30
2023-03-25T06:07:42.886Z,8.28
2023-03-25T06:10:11.886Z,8.25
2023-03-25T06:12:40.010Z,8.24
2023-03-25T06:15:11.465Z,8.31
2023-03-25T06:17:39.360Z,8.33
2023-03-25T06:20:11.824Z,8.27
2023-03-25T06:22:40.380Z,8.25
2023-03-25T06:25:08.890Z,8.23
2023-03-25T06:27:40.395Z,8.27
2023-03-25T06:30:12.417Z,8.24
2023-03-25T06:32:40.323Z,8.21
2023-03-25T06:35:10.820Z,8.23
2023-03-25T06:37:39.232Z,8.23
2023-03-25T06:40:08.305Z,8.22
2023-03-25T06:42:36.094Z,8.22
2023-03-25T06:45:05.047Z,8.21
2023-03-25T06:47:34.792Z,8.25
2023-03-25T06:50:02.502Z,8.19
2023-03-25T06:52:30.424Z,8.25
2023-03-25T06:54:58.139Z,8.25
2023-03-25T06:57:25.917Z,8.27
2023-03-25T06:59:53.806Z,8.28
2023-03-25T07:02:21.570Z,8.25
2023-03-25T07:04:50.721Z,8.25
2023-03-25T07:07:20.139Z,8.29
2023-03-25T07:09:52.249Z,8.32
2023-03-25T07:12:19.986Z,8.33
2023-03-25T07:14:52.203Z,8.36
2023-03-25T07:17:20.086Z,8.41
2023-03-25T07:19:47.806Z,8.45
2023-03-25T07:22:17.401Z,8.47
2023-03-25T07:24:45.677Z,8.50
2023-03-25T07:27:14.261Z,8.49
2023-03-25T07:29:42.232Z,8.45
2023-03-25T07:32:09.976Z,8.52
2023-03-25T07:34:38.207Z,8.53
2023-03-25T07:37:05.939Z,8.50
2023-03-25T07:39:35.024Z,8.53
2023-03-25T07:42:03.136Z,8.56
2023-03-25T07:44:30.854Z,8.56
2023-03-25T07:46:58.589Z,8.61
2023-03-25T07:49:26.308Z,8.62
2023-03-25T07:51:54.074Z,8.68
2023-03-25T07:54:22.440Z,8.70
2023-03-25T07:56:52.777Z,8.70
2023-03-25T07:59:20.564Z,8.70
2023-03-25T08:01:48.370Z,8.73
2023-03-25T08:04:16.094Z,8.70
2023-03-25T08:06:43.833Z,8.78
2023-03-25T08:09:11.799Z,8.83
2023-03-25T08:11:39.584Z,8.82
2023-03-25T08:14:08.830Z,8.90
2023-03-25T08:16:36.649Z,8.89
2023-03-25T08:19:04.400Z,8.90
2023-03-25T08:21:32.159Z,8.83
2023-03-25T08:24:02.417Z,8.88
2023-03-25T08:26:31.229Z,8.82
2023-03-25T08:28:59.696Z,8.82
2023-03-25T08:31:31.231Z,8.86
2023-03-25T08:33:59.588Z,8.95
2023-03-25T08:36:27.773Z,9.02
2023-03-25T08:38:55.905Z,9.08
2023-03-25T08:41:23.794Z,9.10
2023-03-25T08:43:51.679Z,9.14
2023-03-25T08:46:19.519Z,9.17
2023-03-25T08:48:50.234Z,9.21
2023-03-25T08:51:18.336Z,9.25
2023-03-25T08:53:46.129Z,9.30
2023-03-25T08:56:14.171Z,9.34
2023-03-25T08:58:43.307Z,9.38
2023-03-25T09:01:12.125Z,9.37
2023-03-25T09:03:41.034Z,9.43
2023-03-25T09:06:10.722Z,9.44
2023-03-25T09:08:38.522Z,9.46
2023-03-25T09:11:06.857Z,9.63
2023-03-25T09:13:34.647Z,9.67
2023-03-25T09:16:02.473Z,9.77
2023-03-25T09:18:31.964Z,9.75
2023-03-25T09:21:00.841Z,9.76
2023-03-25T09:23:30.190Z,9.83
2023-03-25T09:26:01.746Z,9.89
2023-03-25T09:28:30.274Z,9.80
2023-03-25T09:30:58.424Z,9.78
2023-03-25T09:33:27.574Z,9.83
2023-03-25T09:35:56.149Z,9.83
2023-03-25T09:38:23.885Z,9.86
2023-03-25T09:40:53.125Z,9.97
2023-03-25T09:43:38.582Z,10.02
2023-03-25T09:46:07.350Z,10.08
2023-03-25T09:48:38.450Z,10.08
2023-03-25T09:51:08.557Z,10.10
2023-03-25T09:53:42.321Z,10.08
2023-03-25T09:56:15.076Z,10.13
2023-03-25T09:58:44.658Z,10.19
2023-03-25T10:01:36.421Z,10.27
2023-03-25T10:04:19.529Z,10.35
2023-03-25T10:06:57.418Z,10.49
2023-03-25T10:09:41.179Z,10.49
2023-03-25T10:12:22.714Z,10.56
2023-03-25T10:15:04.189Z,10.53
2023-03-25T10:17:40.866Z,10.55
2023-03-25T10:20:17.539Z,10.67
2023-03-25T10:22:56.109Z,10.67
2023-03-25T10:25:28.388Z,10.75
2023-03-25T10:27:59.145Z,10.78
2023-03-25T10:30:31.453Z,10.68
2023-03-25T10:33:00.604Z,10.73
2023-03-25T10:35:30.579Z,10.77
2023-03-25T10:38:04.761Z,10.69
2023-03-25T10:40:37.404Z,10.72
2023-03-25T10:43:17.666Z,10.77
2023-03-25T10:45:47.508Z,10.84
2023-03-25T10:48:25.338Z,10.84
2023-03-25T10:50:54.583Z,10.87
2023-03-25T10:53:25.464Z,10.92
2023-03-25T10:55:57.814Z,11.08
2023-03-25T10:58:27.819Z,11.20
2023-03-25T11:00:55.613Z,11.34
2023-03-25T11:03:28.205Z,11.45
2023-03-25T11:05:56.056Z,11.51
2023-03-25T11:08:25.552Z,11.62
2023-03-25T11:10:57.746Z,11.72
2023-03-25T11:13:29.518Z,11.84
2023-03-25T11:16:00.850Z,12.04
2023-03-25T11:18:31.488Z,12.02
2023-03-25T11:21:04.319Z,11.92
2023-03-25T11:23:35.044Z,11.79
2023-03-25T11:26:06.133Z,11.60
2023-03-25T11:28:40.190Z,11.62
2023-03-25T11:31:12.079Z,11.72
2023-03-25T11:33:41.211Z,11.70
2023-03-25T11:36:14.305Z,11.70
2023-03-25T11:38:42.071Z,11.88
2023-03-25T11:41:09.873Z,12.18
2023-03-25T11:43:40.949Z,12.33
2023-03-25T11:46:10.650Z,12.44
2023-03-25T11:48:41.123Z,12.17
2023-03-25T11:51:14.165Z,12.04
2023-03-25T11:53:46.749Z,11.95
2023-03-25T11:56:20.645Z,12.10
2023-03-25T11:58:52.867Z,12.20
2023-03-25T12:01:27.807Z,12.44
2023-03-25T12:04:09.621Z,12.72
2023-03-25T12:06:37.389Z,12.77
2023-03-25T12:09:11.074Z,12.51
2023-03-25T12:11:46.803Z,12.29
2023-03-25T12:14:27.277Z,12.40
2023-03-25T12:17:00.537Z,12.07
2023-03-25T12:19:40.771Z,11.82
2023-03-25T12:22:26.602Z,11.84
2023-03-25T12:25:09.592Z,11.80
2023-03-25T12:27:48.717Z,11.82
2023-03-25T12:30:31.654Z,11.96
2023-03-25T12:33:11.810Z,12.13
2023-03-25T12:35:48.277Z,12.29
2023-03-25T12:38:32.791Z,12.25
2023-03-25T12:41:21.360Z,12.33
2023-03-25T12:44:00.694Z,12.36
2023-03-25T12:46:52.464Z,12.31
2023-03-25T12:49:35.502Z,12.22
2023-03-25T12:52:09.528Z,12.30
2023-03-25T12:54:51.312Z,12.26
2023-03-25T12:57:34.370Z,12.15
2023-03-25T13:00:17.973Z,12.07
2023-03-25T13:03:16.669Z,11.91
2023-03-25T13:05:51.605Z,11.93
2023-03-25T13:08:22.552Z,11.80
2023-03-25T13:10:57.597Z,11.77
2023-03-25T13:13:28.528Z,11.70
2023-03-25T13:16:03.926Z,11.61
2023-03-25T13:18:38.200Z,11.39
2023-03-25T13:21:14.241Z,11.19
2023-03-25T13:23:45.089Z,11.25
2023-03-25T13:26:16.399Z,11.28
2023-03-25T13:28:47.628Z,11.35
2023-03-25T13:31:20.509Z,11.30
2023-03-25T13:33:54.576Z,11.07
2023-03-25T13:36:29.356Z,10.92
2023-03-25T13:38:58.622Z,11.10
2023-03-25T13:41:32.153Z,11.16
2023-03-25T13:44:09.001Z,11.17
2023-03-25T13:46:41.471Z,11.04
2023-03-25T13:49:18.775Z,10.52
2023-03-25T13:51:47.943Z,10.32
2023-03-25T13:54:21.855Z,10.28
2023-03-25T13:57:27.495Z,10.36
2023-03-25T14:00:18.679Z,10.56
2023-03-25T14:03:05.679Z,10.63
2023-03-25T14:05:49.007Z,10.61
2023-03-25T14:08:51.547Z,10.73
2023-03-25T14:11:25.158Z,10.83
2023-03-25T14:13:56.132Z,10.97
2023-03-25T14:16:27.619Z,10.98
2023-03-25T14:19:00.421Z,11.08
2023-03-25T14:21:35.612Z,11.20
2023-03-25T14:24:06.865Z,11.07
2023-03-25T14:26:37.704Z,11.15
2023-03-25T14:29:11.107Z,11.02
2023-03-25T14:31:38.839Z,11.21
2023-03-25T14:34:40.624Z,11.33
2023-03-25T14:37:30.894Z,11.45
2023-03-25T14:40:02.123Z,11.51
2023-03-25T14:42:31.978Z,11.52
2023-03-25T14:45:36.912Z,11.54
2023-03-25T14:48:22.999Z,11.52
2023-03-25T14:51:10.806Z,11.59
2023-03-25T14:53:41.643Z,11.50
2023-03-25T14:56:19.002Z,11.53
2023-03-25T14:58:54.060Z,11.53
2023-03-25T15:01:22.960Z,11.51
2023-03-25T15:03:51.146Z,11.48
2023-03-25T15:06:30.265Z,11.48
2023-03-25T15:09:00.919Z,11.58
2023-03-25T15:11:34.540Z,11.53
2023-03-25T15:14:06.391Z,11.61
2023-03-25T15:16:36.442Z,11.63
2023-03-25T15:19:07.638Z,11.44
2023-03-25T15:22:11.025Z,11.30
2023-03-25T15:24:41.853Z,11.18
2023-03-25T15:27:23.001Z,11.12
2023-03-25T15:30:02.112Z,11.02
2023-03-25T15:32:44.217Z,11.05
2023-03-25T15:35:45.269Z,11.11
2023-03-25T15:38:32.432Z,10.93
2023-03-25T15:41:15.022Z,10.98
2023-03-25T15:44:04.535Z,10.95
2023-03-25T15:46:57.255Z,10.79
2023-03-25T15:49:56.951Z,10.87
2023-03-25T15:52:44.695Z,10.97
2023-03-25T15:55:17.094Z,11.08
2023-03-25T15:57:50.131Z,11.17
2023-03-25T16:00:24.943Z,11.21
2023-03-25T16:03:00.629Z,11.21
2023-03-25T16:05:29.842Z,11.18
2023-03-25T16:07:59.079Z,11.04
2023-03-25T16:10:31.078Z,11.13
2023-03-25T16:13:04.283Z,11.21
2023-03-25T16:15:34.552Z,11.27
2023-03-25T16:18:05.212Z,11.26
2023-03-25T16:20:35.537Z,11.28
2023-03-25T16:23:06.446Z,11.31
2023-03-25T16:25:37.972Z,11.24
2023-03-25T16:28:08.932Z,11.11
2023-03-25T16:30:39.011Z,11.11
2023-03-25T16:33:16.738Z,11.06
2023-03-25T16:35:46.651Z,11.02
2023-03-25T16:38:17.742Z,11.06
2023-03-25T16:40:47.923Z,11.13
2023-03-25T16:43:21.287Z,11.11
2023-03-25T16:45:50.724Z,11.14
2023-03-25T16:48:23.031Z,11.16
2023-03-25T16:50:54.333Z,11.17
2023-03-25T16:53:23.738Z,11.22
2023-03-25T16:55:57.879Z,11.10
2023-03-25T16:58:29.096Z,10.95
2023-03-25T17:00:57.864Z,10.90
2023-03-25T17:03:44.638Z,10.90
2023-03-25T17:06:22.574Z,10.94
2023-03-25T17:08:52.000Z,10.93
2023-03-25T17:11:21.719Z,10.91
2023-03-25T17:13:54.941Z,10.83
2023-03-25T17:16:23.439Z,10.74
2023-03-25T17:18:54.332Z,10.69
2023-03-25T17:21:26.626Z,10.57
2023-03-25T17:23:55.845Z,10.64
2023-03-25T17:26:25.451Z,10.48
2023-03-25T17:29:02.962Z,10.44
2023-03-25T17:31:34.886Z,10.45
2023-03-25T17:34:07.390Z,10.34
2023-03-25T17:36:47.777Z,10.35
2023-03-25T17:39:20.670Z,10.29
2023-03-25T17:41:51.075Z,10.27
2023-03-25T17:44:20.942Z,10.26
2023-03-25T17:46:48.755Z,10.26
2023-03-25T17:49:17.984Z,10.26
2023-03-25T17:51:46.423Z,10.34
2023-03-25T17:54:14.575Z,10.27
2023-03-25T17:56:43.007Z,10.36
2023-03-25T17:59:16.649Z,10.40
2023-03-25T18:01:46.323Z,10.46
2023-03-25T18:04:15.496Z,10.49
2023-03-25T18:06:44.222Z,10.52
2023-03-25T18:09:17.045Z,10.54
2023-03-25T18:11:49.365Z,10.48
2023-03-25T18:14:17.206Z,10.42
2023-03-25T18:16:46.380Z,10.37
2023-03-25T18:19:17.089Z,10.31
2023-03-25T18:21:45.892Z,10.29
2023-03-25T18:24:14.749Z,10.21
2023-03-25T18:26:47.002Z,10.20
2023-03-25T18:29:23.590Z,10.15
2023-03-25T18:31:59.751Z,10.18
2023-03-25T18:34:28.822Z,10.19
2023-03-25T18:36:56.564Z,10.21
2023-03-25T18:39:35.011Z,10.22
2023-03-25T18:42:02.939Z,10.18
2023-03-25T18:44:30.881Z,10.17
2023-03-25T18:47:00.070Z,10.04
2023-03-25T18:49:29.026Z,10.03
2023-03-25T18:51:57.728Z,9.99
2023-03-25T18:54:25.572Z,9.98
2023-03-25T18:56:53.340Z,9.99
2023-03-25T18:59:21.972Z,9.92
2023-03-25T19:01:49.749Z,9.79
2023-03-25T19:04:19.273Z,9.74
2023-03-25T19:06:48.381Z,9.66
2023-03-25T19:09:19.438Z,9.69
2023-03-25T19:11:48.128Z,9.73
2023-03-25T19:14:16.161Z,9.81
2023-03-25T19:16:57.218Z,9.77
2023-03-25T19:19:30.977Z,9.67
2023-03-25T19:21:58.739Z,9.56
2023-03-25T19:24:26.556Z,9.46
2023-03-25T19:26:54.279Z,9.46
2023-03-25T19:29:22.030Z,9.48
2023-03-25T19:31:49.767Z,9.38
2023-03-25T19:34:17.872Z,9.31
2023-03-25T19:36:47.066Z,9.37
2023-03-25T19:39:15.892Z,9.25
2023-03-25T19:41:44.922Z,9.25
2023-03-25T19:44:12.778Z,9.31
2023-03-25T19:46:40.569Z,9.38
2023-03-25T19:49:08.599Z,9.29
2023-03-25T19:51:36.350Z,9.28
2023-03-25T19:54:06.141Z,9.31
2023-03-25T19:56:33.962Z,9.36
2023-03-25T19:59:02.556Z,9.35
2023-03-25T20:01:30.967Z,9.35
2023-03-25T20:03:58.765Z,9.35
2023-03-25T20:06:27.139Z,9.32
2023-03-25T20:08:54.984Z,9.31
2023-03-25T20:11:24.670Z,9.28
2023-03-25T20:13:53.277Z,9.26
2023-03-25T20:16:22.056Z,9.24
2023-03-25T20:18:49.972Z,9.23
2023-03-25T20:21:17.787Z,9.21
2023-03-25T20:23:45.516Z,9.21
2023-03-25T20:26:13.300Z,9.13
2023-03-25T20:28:42.444Z,9.14
2023-03-25T20:31:16.523Z,9.13
2023-03-25T20:33:44.344Z,9.15
2023-03-25T20:36:12.185Z,9.16
2023-03-25T20:38:50.406Z,9.15
2023-03-25T20:41:24.031Z,9.13
2023-03-25T20:43:53.284Z,9.17
2023-03-25T20:46:28.349Z,9.16
2023-03-25T20:48:59.428Z,9.16
2023-03-25T20:51:27.197Z,9.11
2023-03-25T20:53:55.133Z,9.09
2023-03-25T20:56:22.898Z,9.04
2023-03-25T20:58:50.731Z,9.03
2023-03-25T21:01:21.402Z,9.01
2023-03-25T21:03:51.669Z,9.01
2023-03-25T21:06:23.782Z,8.97
2023-03-25T21:08:54.722Z,8.91
2023-03-25T21:11:22.894Z,8.88
2023-03-25T21:13:50.847Z,8.80
2023-03-25T21:16:20.326Z,8.80
2023-03-25T21:18:49.280Z,8.79
2023-03-25T21:21:19.750Z,8.79
2023-03-25T21:23:49.166Z,8.78
2023-03-25T21:26:17.634Z,8.76
2023-03-25T21:28:45.497Z,8.74
2023-03-25T21:31:17.204Z,8.71
2023-03-25T21:33:48.842Z,8.69
2023-03-25T21:36:20.871Z,8.69
2023-03-25T21:38:48.716Z,8.68
2023-03-25T21:41:16.582Z,8.65
2023-03-25T21:43:45.740Z,8.63
2023-03-25T21:46:13.724Z,8.60
2023-03-25T21:48:45.004Z,8.57
2023-03-25T21:51:15.362Z,8.54
2023-03-25T21:53:45.397Z,8.50
2023-03-25T21:56:15.459Z,8.48
2023-03-25T21:58:43.244Z,8.48
2023-03-25T22:01:15.372Z,8.46
2023-03-25T22:03:45.387Z,8.41
2023-03-25T22:06:18.458Z,8.39
2023-03-25T22:08:46.529Z,8.38
2023-03-25T22:11:16.759Z,8.40
2023-03-25T22:13:45.610Z,8.39
2023-03-25T22:16:15.654Z,8.40
2023-03-25T22:18:44.005Z,8.41
2023-03-25T22:21:15.716Z,8.43
2023-03-25T22:23:46.026Z,8.43
2023-03-25T22:26:15.702Z,8.44
2023-03-25T22:28:43.903Z,8.46
2023-03-25T22:31:12.868Z,8.47
2023-03-25T22:33:41.529Z,8.47
2023-03-25T22:36:12.853Z,8.47
2023-03-25T22:38:44.175Z,8.48
2023-03-25T22:41:13.533Z,8.49
2023-03-25T22:43:41.489Z,8.51
2023-03-25T22:46:10.424Z,8.53
2023-03-25T22:48:39.341Z,8.53
2023-03-25T22:51:08.480Z,8.55
2023-03-25T22:53:36.567Z,8.55
2023-03-25T22:56:06.662Z,8.57
2023-03-25T22:58:34.547Z,8.58
2023-03-25T23:01:04.208Z,8.58
2023-03-25T23:03:32.240Z,8.60
2023-03-25T23:06:02.678Z,8.61
2023-03-25T23:08:33.195Z,8.63
2023-03-25T23:11:03.178Z,8.63
2023-03-25T23:13:32.263Z,8.64
2023-03-25T23:16:01.307Z,8.66
2023-03-25T23:18:29.486Z,8.67
2023-03-25T23:20:59.379Z,8.67
2023-03-25T23:23:28.915Z,8.68
2023-03-25T23:26:07.678Z,8.69
2023-03-25T23:28:38.885Z,8.70
2023-03-25T23:31:11.404Z,8.70
2023-03-25T23:33:39.110Z,8.67
2023-03-25T23:36:07.825Z,8.66
2023-03-25T23:38:35.709Z,8.66
2023-03-25T23:41:04.940Z,8.67
2023-03-25T23:43:32.719Z,8.65
2023-03-25T23:46:01.929Z,8.67
2023-03-25T23:48:31.601Z,8.68
2023-03-25T23:50:59.648Z,8.68
2023-03-25T23:53:28.249Z,8.70
2023-03-25T23:55:56.833Z,8.70
2023-03-25T23:58:25.532Z,8.69
